Time;durP1;ratioP1;P1;durP2;ratioP2;P2;SDS_P1;SDS_P2;PMS_P1;PMS_P2;Temp;Humidity;BMP_temperature;BMP_pressure;BME280_temperature;BME280_humidity;BME280_pressure;Samples;Min_cycle;Max_cycle;Signal;HPM_P1;HPM_P2
2022/01/21 00:00:11;;;;;;;7.37;1.80;;;;;;;0.97;100.00;100320.34;5088199;28;20195;-85
2022/01/21 00:02:42;;;;;;;7.83;1.97;;;;;;;0.90;100.00;100326.47;5115712;27;20197;-84
2022/01/21 00:05:11;;;;;;;6.43;2.27;;;;;;;0.77;100.00;100322.16;5171348;27;20199;-85
2022/01/21 00:07:41;;;;;;;6.73;2.20;;;;;;;0.82;100.00;100323.03;5173455;27;20196;-85
2022/01/21 00:10:10;;;;;;;11.50;2.47;;;;;;;0.76;100.00;100329.13;5166616;27;20253;-85
2022/01/21 00:12:39;;;;;;;7.37;2.33;;;;;;;0.78;100.00;100324.81;5175197;27;20244;-84
2022/01/21 00:15:10;;;;;;;8.10;2.30;;;;;;;0.62;100.00;100330.97;5174168;27;20217;-83
2022/01/21 00:17:40;;;;;;;8.70;2.57;;;;;;;0.64;100.00;100336.16;5160257;27;20200;-84
2022/01/21 00:31:24;;;;;;;11.33;3.03;;;;;;;0.63;100.00;100340.50;5182834;27;20189;-83
2022/01/21 00:33:52;;;;;;;7.67;2.97;;;;;;;0.60;100.00;100348.34;5178734;27;20217;-84
2022/01/21 00:36:23;;;;;;;6.47;2.77;;;;;;;0.64;100.00;100352.66;5178720;27;20185;-84
2022/01/21 00:38:54;;;;;;;8.27;2.87;;;;;;;0.62;100.00;100348.34;5169760;27;20197;-84
2022/01/21 00:41:26;;;;;;;8.40;2.80;;;;;;;0.61;100.00;100341.41;5180804;27;20250;-83
2022/01/21 00:43:54;;;;;;;10.90;2.77;;;;;;;0.52;100.00;100337.94;5189179;27;20201;-84
2022/01/21 00:46:23;;;;;;;7.93;2.90;;;;;;;0.49;100.00;100337.97;5175948;27;20189;-84
2022/01/21 00:48:51;;;;;;;9.17;3.07;;;;;;;0.46;100.00;100337.97;5181787;27;20197;-83
2022/01/21 00:51:20;;;;;;;8.93;2.53;;;;;;;0.36;100.00;100351.03;5185091;27;20196;-84
2022/01/21 00:53:50;;;;;;;11.83;3.17;;;;;;;0.34;100.00;100353.66;5186042;27;20209;-84
2022/01/21 00:56:18;;;;;;;9.73;2.83;;;;;;;0.37;100.00;100357.97;5196701;27;20212;-80
2022/01/21 00:58:46;;;;;;;8.03;2.80;;;;;;;0.34;100.00;100366.69;5200362;27;20181;-82
2022/01/21 01:01:15;;;;;;;11.43;3.40;;;;;;;0.35;100.00;100375.38;5196363;27;20196;-82
2022/01/21 01:03:44;;;;;;;8.20;3.20;;;;;;;0.29;100.00;100371.06;5203340;27;20176;-81
2022/01/21 01:06:12;;;;;;;11.20;3.13;;;;;;;0.28;100.00;100367.56;5199460;27;20192;-84
2022/01/21 01:08:40;;;;;;;9.17;2.60;;;;;;;0.19;100.00;100378.03;5203556;27;20177;-83
2022/01/21 01:11:29;;;;;;;5.93;2.77;;;;;;;0.31;100.00;100379.72;5194026;27;20210;-80
2022/01/21 01:22:18;;;;;;;12.07;2.90;;;;;;;0.33;100.00;100398.81;5182365;27;20185;-84
2022/01/21 01:27:41;;;;;;;12.93;2.73;;;;;;;0.23;100.00;100397.97;5175336;27;20213;-85
2022/01/21 01:30:13;;;;;;;15.40;3.07;;;;;;;0.25;100.00;100388.41;5167386;27;20222;-84
2022/01/21 01:32:43;;;;;;;7.90;2.33;;;;;;;0.35;100.00;100409.25;5168208;27;20659;-85
2022/01/21 01:35:16;;;;;;;7.07;2.33;;;;;;;0.33;100.00;100404.03;5169991;27;20212;-85
2022/01/21 01:40:38;;;;;;;8.87;3.00;;;;;;;0.40;100.00;100404.91;5093613;28;20190;-85
2022/01/21 01:51:34;;;;;;;10.67;2.53;;;;;;;0.10;100.00;100418.84;4956485;29;20197;-84
2022/01/21 01:54:07;;;;;;;10.43;2.40;;;;;;;-0.02;100.00;100422.31;4953876;29;20669;-85
2022/01/21 01:56:39;;;;;;;11.67;2.60;;;;;;;0.12;100.00;100415.38;4954560;29;20703;-85
2022/01/21 01:59:08;;;;;;;8.73;2.53;;;;;;;0.20;100.00;100407.56;4956390;29;20627;-83
2022/01/21 02:01:37;;;;;;;8.30;2.47;;;;;;;0.07;100.00;100408.41;4976661;28;20223;-85
2022/01/21 02:04:06;;;;;;;10.57;2.53;;;;;;;0.23;100.00;100415.34;5011606;28;20190;-85
2022/01/21 02:06:34;;;;;;;7.57;2.60;;;;;;;0.33;100.00;100409.25;5008709;28;20190;-85
2022/01/21 02:09:03;;;;;;;9.90;2.67;;;;;;;0.30;100.00;100405.78;5034715;28;20265;-86
2022/01/21 02:11:32;;;;;;;6.53;2.20;;;;;;;0.33;100.00;100411.00;5094550;28;20206;-85
2022/01/21 02:14:02;;;;;;;6.07;2.17;;;;;;;0.34;100.00;100410.13;5090677;28;20188;-86
2022/01/21 02:16:40;;;;;;;12.80;2.50;;;;;;;0.43;100.00;100404.88;5088528;28;20669;-87
2022/01/21 02:21:57;;;;;;;9.00;3.00;;;;;;;0.42;100.00;100408.38;5178552;27;20200;-85
2022/01/21 02:24:34;;;;;;;10.37;2.60;;;;;;;0.56;100.00;100403.97;5178615;27;20185;-84
2022/01/21 02:27:04;;;;;;;6.90;2.30;;;;;;;0.50;100.00;100410.06;5174943;27;20656;-86
2022/01/21 02:29:44;;;;;;;8.03;2.53;;;;;;;0.53;100.00;100402.25;5169945;27;20257;-84
2022/01/21 02:32:12;;;;;;;10.67;2.57;;;;;;;0.47;100.00;100385.75;5132845;27;20190;-86
2022/01/21 02:34:41;;;;;;;9.57;2.90;;;;;;;0.52;100.00;100397.03;5127400;27;20206;-85
2022/01/21 02:37:13;;;;;;;9.13;2.23;;;;;;;0.52;100.00;100390.09;5131783;27;20195;-86
2022/01/21 02:39:42;;;;;;;9.10;2.60;;;;;;;0.57;100.00;100388.31;5130097;27;20190;-85
2022/01/21 02:42:12;;;;;;;10.53;2.60;;;;;;;0.55;100.00;100382.25;5130527;27;20234;-85
2022/01/21 02:44:42;;;;;;;7.10;2.50;;;;;;;0.52;100.00;100376.19;5131937;27;20187;-85
2022/01/21 02:47:11;;;;;;;12.57;2.77;;;;;;;0.60;100.00;100373.56;5129708;27;20281;-85
2022/01/21 02:49:39;;;;;;;6.77;1.80;;;;;;;0.67;100.00;100389.13;5128713;27;20197;-85
2022/01/21 02:52:08;;;;;;;6.73;2.30;;;;;;;0.76;100.00;100383.88;5128236;27;20194;-85
2022/01/21 02:54:38;;;;;;;12.97;2.50;;;;;;;0.74;100.00;100380.44;5126022;27;20182;-84
2022/01/21 02:57:09;;;;;;;12.67;2.60;;;;;;;0.71;100.00;100380.44;5154869;27;20200;-85
2022/01/21 02:59:40;;;;;;;7.57;2.27;;;;;;;0.68;100.00;100374.41;5171103;27;20181;-85
2022/01/21 03:02:10;;;;;;;11.77;2.50;;;;;;;0.74;100.00;100379.56;5170420;27;20187;-85
2022/01/21 03:04:48;;;;;;;10.30;2.53;;;;;;;0.70;100.00;100391.75;5168098;27;20201;-85
2022/01/21 03:07:16;;;;;;;9.27;2.30;;;;;;;0.75;100.00;100397.81;5173347;27;20200;-84
2022/01/21 03:09:46;;;;;;;8.23;2.47;;;;;;;0.82;100.00;100407.34;5177463;27;20190;-84
2022/01/21 03:12:14;;;;;;;7.07;2.20;;;;;;;0.76;100.00;100409.97;5010638;28;20194;-85
2022/01/21 03:14:42;;;;;;;9.33;2.37;;;;;;;0.82;100.00;100412.56;5010068;28;20190;-85
2022/01/21 03:17:12;;;;;;;8.23;2.53;;;;;;;0.83;100.00;100408.22;5009199;28;20191;-84
2022/01/21 03:19:41;;;;;;;10.80;2.93;;;;;;;0.85;100.00;100403.84;5010905;28;20187;-86
2022/01/21 03:22:09;;;;;;;9.97;2.40;;;;;;;0.84;100.00;100397.75;5010225;28;20203;-86
2022/01/21 03:24:37;;;;;;;8.33;2.47;;;;;;;0.84;100.00;100412.53;5007884;28;20186;-85
2022/01/21 03:27:08;;;;;;;8.87;2.50;;;;;;;0.89;100.00;100408.19;5007713;28;20210;-84
2022/01/21 03:29:36;;;;;;;8.30;2.27;;;;;;;0.81;100.00;100418.66;5048710;27;20201;-85
2022/01/21 03:32:05;;;;;;;10.27;2.53;;;;;;;0.75;100.00;100415.19;5168147;27;20204;-84
2022/01/21 03:34:34;;;;;;;10.80;2.73;;;;;;;0.76;100.00;100411.69;5171323;27;20271;-85
2022/01/21 03:37:05;;;;;;;8.10;2.60;;;;;;;0.78;100.00;100421.28;5169487;27;20312;-85
2022/01/21 03:39:34;;;;;;;9.40;2.97;;;;;;;0.72;100.00;100434.31;5174020;27;20192;-84
2022/01/21 03:42:04;;;;;;;10.03;3.00;;;;;;;0.69;100.00;100433.47;5179845;27;20327;-84
2022/01/21 03:44:35;;;;;;;9.17;2.30;;;;;;;0.69;100.00;100430.88;5141123;27;20204;-84
2022/01/21 03:47:05;;;;;;;13.87;2.60;;;;;;;0.64;100.00;100430.00;5171451;27;20200;-84
2022/01/21 03:49:38;;;;;;;8.27;2.47;;;;;;;0.62;100.00;100432.63;5169385;27;20202;-85
2022/01/21 03:52:08;;;;;;;10.60;2.90;;;;;;;0.63;100.00;100430.88;5176018;27;20204;-85
2022/01/21 03:54:36;;;;;;;11.50;2.70;;;;;;;0.62;100.00;100430.03;5173146;27;20200;-84
2022/01/21 03:57:05;;;;;;;7.73;2.40;;;;;;;0.59;100.00;100439.59;5165603;27;20213;-85
2022/01/21 03:59:35;;;;;;;7.87;2.57;;;;;;;0.61;100.00;100443.94;5169223;27;20201;-85
2022/01/21 04:02:05;;;;;;;10.33;3.07;;;;;;;0.56;100.00;100449.13;5167561;27;20237;-84
2022/01/21 04:04:34;;;;;;;9.20;2.63;;;;;;;0.56;100.00;100449.13;5171917;27;20216;-86
2022/01/21 04:07:04;;;;;;;6.87;2.63;;;;;;;0.56;100.00;100451.75;5176061;27;20200;-85
2022/01/21 04:09:32;;;;;;;7.13;2.67;;;;;;;0.61;100.00;100458.69;5172697;27;20201;-84
2022/01/21 04:12:00;;;;;;;9.93;2.90;;;;;;;0.63;100.00;100456.94;5133369;27;20265;-84
2022/01/21 04:14:31;;;;;;;9.67;2.50;;;;;;;0.67;100.00;100456.94;5170043;27;20193;-84
2022/01/21 04:17:01;;;;;;;10.43;2.57;;;;;;;0.68;100.00;100457.81;5168262;27;20223;-85
2022/01/21 04:19:30;;;;;;;14.90;2.83;;;;;;;0.65;100.00;100456.06;5176276;27;20212;-85
2022/01/21 04:21:58;;;;;;;12.07;3.00;;;;;;;0.69;100.00;100456.94;5171587;27;20200;-85
2022/01/21 04:24:27;;;;;;;9.73;2.77;;;;;;;0.71;100.00;100447.38;5169046;27;20190;-84
2022/01/21 04:26:56;;;;;;;11.43;2.93;;;;;;;0.71;100.00;100457.81;5175966;27;20323;-84
2022/01/21 04:29:24;;;;;;;9.63;2.90;;;;;;;0.76;100.00;100458.63;5171684;27;20197;-85
2022/01/21 04:31:52;;;;;;;9.87;2.50;;;;;;;0.88;100.00;100465.59;5164570;27;20189;-85
2022/01/21 04:34:22;;;;;;;12.80;2.83;;;;;;;0.86;100.00;100460.34;5171964;27;20218;-85
2022/01/21 04:36:52;;;;;;;5.37;2.30;;;;;;;0.91;100.00;100457.72;5168685;27;20217;-84
2022/01/21 04:39:26;;;;;;;14.60;3.13;;;;;;;0.86;100.00;100462.94;5165006;27;20193;-85
2022/01/21 04:47:27;;;;;;;7.60;2.73;;;;;;;0.89;100.00;100472.53;5171889;27;20253;-85
2022/01/21 04:49:57;;;;;;;9.53;3.20;;;;;;;0.94;100.00;100474.22;5175672;27;20185;-85
2022/01/21 04:52:26;;;;;;;8.97;3.30;;;;;;;0.95;100.00;100470.75;5169864;27;20185;-85
2022/01/21 04:54:56;;;;;;;9.07;3.47;;;;;;;0.96;100.00;100459.44;5169312;27;20246;-86
2022/01/21 04:57:24;;;;;;;10.23;3.20;;;;;;;0.94;100.00;100453.38;5172578;27;20216;-85
2022/01/21 04:59:52;;;;;;;10.43;3.40;;;;;;;0.90;100.00;100448.19;5168994;27;20195;-85
2022/01/21 05:02:22;;;;;;;12.20;3.67;;;;;;;0.96;100.00;100459.44;5170652;27;20185;-85
2022/01/21 05:04:51;;;;;;;12.23;3.47;;;;;;;0.99;100.00;100467.25;5167036;27;20280;-84
2022/01/21 05:07:25;;;;;;;15.60;3.63;;;;;;;1.02;100.00;100480.28;5167071;27;20193;-85
2022/01/21 05:09:55;;;;;;;9.83;3.50;;;;;;;1.03;100.00;100466.38;5164920;27;20189;-85
2022/01/21 05:12:25;;;;;;;9.73;3.53;;;;;;;1.09;100.00;100461.13;5173095;27;20193;-86
2022/01/21 05:15:08;;;;;;;12.83;3.73;;;;;;;1.12;100.00;100463.72;5175793;27;20226;-85
2022/01/21 05:17:44;;;;;;;9.23;3.30;;;;;;;1.09;100.00;100474.19;5176492;27;20268;-84
2022/01/21 05:20:16;;;;;;;11.63;3.33;;;;;;;1.11;100.00;100471.56;5174027;27;20269;-84
2022/01/21 05:22:47;;;;;;;9.70;3.60;;;;;;;1.01;100.00;100480.31;5176979;27;20208;-86
2022/01/21 05:25:18;;;;;;;11.23;3.70;;;;;;;1.01;100.00;100477.69;5172218;27;20200;-85
2022/01/21 05:27:50;;;;;;;17.87;4.30;;;;;;;0.90;100.00;100480.34;5174105;27;20189;-85
2022/01/21 05:30:18;;;;;;;17.13;4.30;;;;;;;0.83;100.00;100484.69;5175774;27;20347;-85
2022/01/21 05:32:48;;;;;;;12.30;4.03;;;;;;;0.81;100.00;100486.44;5162605;27;20196;-86
2022/01/21 05:35:17;;;;;;;9.83;3.80;;;;;;;0.85;100.00;100488.16;5176638;27;20193;-86
2022/01/21 05:37:47;;;;;;;12.27;3.67;;;;;;;0.92;100.00;100478.59;5168703;27;20228;-84
2022/01/21 05:40:17;;;;;;;7.40;3.53;;;;;;;1.06;100.00;100489.84;5169611;27;20241;-83
2022/01/21 05:42:45;;;;;;;8.27;3.20;;;;;;;1.02;100.00;100493.31;5176364;27;20316;-85
2022/01/21 05:47:59;;;;;;;8.20;3.50;;;;;;;1.08;100.00;100485.50;5178810;27;20189;-86
2022/01/21 05:50:27;;;;;;;9.90;3.17;;;;;;;1.03;100.00;100482.00;5167400;27;20193;-85
2022/01/21 05:53:01;;;;;;;11.13;3.43;;;;;;;1.06;100.00;100489.84;5173467;27;20200;-85
2022/01/21 05:55:30;;;;;;;10.80;4.03;;;;;;;1.09;100.00;100482.00;5168930;27;20253;-86
2022/01/21 05:57:58;;;;;;;10.87;3.30;;;;;;;1.10;100.00;100482.88;5169009;27;20223;-86
2022/01/21 06:00:28;;;;;;;10.03;3.43;;;;;;;1.08;100.00;100484.63;5174217;27;20671;-85
2022/01/21 06:02:57;;;;;;;11.10;3.50;;;;;;;1.15;100.00;100478.47;5166630;27;20197;-85
2022/01/21 06:05:25;;;;;;;9.93;3.53;;;;;;;1.14;100.00;100467.19;5170797;27;20275;-85
2022/01/21 06:07:54;;;;;;;11.00;3.27;;;;;;;1.15;100.00;100479.34;5166742;27;20224;-85
2022/01/21 06:10:24;;;;;;;14.47;3.80;;;;;;;1.04;100.00;100475.94;5170505;27;20201;-84
2022/01/21 06:12:52;;;;;;;11.90;4.23;;;;;;;1.04;100.00;100475.94;5175649;27;20197;-85
2022/01/21 06:15:20;;;;;;;11.37;3.83;;;;;;;1.18;100.00;100480.22;5168604;27;20241;-84
2022/01/21 06:17:49;;;;;;;15.83;4.50;;;;;;;1.04;100.00;100478.53;5137320;27;20260;-84
2022/01/21 06:20:19;;;;;;;14.97;3.70;;;;;;;1.17;100.00;100478.50;5174518;27;20221;-85
2022/01/21 06:22:51;;;;;;;15.30;4.30;;;;;;;1.16;100.00;100480.25;5109612;28;20195;-84
2022/01/21 06:25:23;;;;;;;11.70;4.17;;;;;;;1.25;100.00;100494.97;5093363;28;20193;-86
2022/01/21 06:27:51;;;;;;;15.97;4.13;;;;;;;1.22;100.00;100498.47;5106095;28;20199;-85
2022/01/21 06:30:20;;;;;;;11.80;4.07;;;;;;;1.17;100.00;100491.56;5108283;28;20187;-84
2022/01/21 06:32:49;;;;;;;10.20;3.73;;;;;;;1.30;100.00;100499.31;5114430;28;20205;-84
2022/01/21 06:35:18;;;;;;;9.17;3.70;;;;;;;1.25;100.00;100498.44;5108174;28;20236;-85
2022/01/21 06:37:46;;;;;;;11.23;4.23;;;;;;;1.22;100.00;100498.47;5104488;28;20211;-85
2022/01/21 06:40:19;;;;;;;10.23;3.93;;;;;;;1.21;100.00;100501.09;5109570;28;20660;-84
2022/01/21 06:42:52;;;;;;;11.60;4.33;;;;;;;1.17;100.00;100504.59;5107534;28;20222;-84
2022/01/21 06:45:21;;;;;;;11.40;3.73;;;;;;;1.13;100.00;100495.91;5108595;28;20750;-84
2022/01/21 06:47:50;;;;;;;12.80;4.00;;;;;;;0.95;100.00;100501.19;5147393;27;20190;-86
2022/01/21 06:50:19;;;;;;;10.43;4.13;;;;;;;1.01;100.00;100504.63;5170119;27;20188;-84
2022/01/21 06:52:47;;;;;;;14.80;4.47;;;;;;;1.02;100.00;100505.50;5153802;27;20197;-86
2022/01/21 06:55:17;;;;;;;18.23;4.07;;;;;;;1.01;100.00;100511.59;5168329;27;20246;-85
2022/01/21 06:57:45;;;;;;;10.80;4.23;;;;;;;0.97;100.00;100515.09;5172717;27;20213;-85
2022/01/21 07:00:20;;;;;;;13.40;5.03;;;;;;;0.93;100.00;100516.84;5169968;27;20644;-86
2022/01/21 07:02:49;;;;;;;12.47;4.37;;;;;;;0.90;100.00;100511.63;5174417;27;20181;-85
2022/01/21 07:05:18;;;;;;;16.80;5.30;;;;;;;0.92;100.00;100511.63;5170013;27;20264;-85
2022/01/21 07:07:48;;;;;;;11.67;4.63;;;;;;;1.06;100.00;100509.81;5172992;27;20196;-84
2022/01/21 07:10:19;;;;;;;18.60;6.03;;;;;;;1.02;100.00;100513.34;5173367;27;20222;-86
2022/01/21 07:12:48;;;;;;;13.63;5.33;;;;;;;0.95;100.00;100519.44;5107790;28;20233;-85
2022/01/21 07:15:19;;;;;;;14.27;6.13;;;;;;;0.97;100.00;100528.16;5055073;28;20187;-84
2022/01/21 07:17:49;;;;;;;17.43;5.73;;;;;;;1.00;100.00;100520.31;5051149;28;20216;-85
2022/01/21 07:20:18;;;;;;;11.60;6.20;;;;;;;1.03;100.00;100533.31;5050241;28;20223;-85
2022/01/21 07:22:46;;;;;;;15.10;5.80;;;;;;;1.03;100.00;100533.31;5050049;28;20276;-86
2022/01/21 07:25:17;;;;;;;18.37;6.27;;;;;;;1.03;100.00;100535.94;5029715;28;20210;-86
2022/01/21 07:27:51;;;;;;;16.20;6.30;;;;;;;1.15;100.00;100543.72;5030056;28;20201;-85
2022/01/21 07:30:21;;;;;;;13.30;6.73;;;;;;;1.13;100.00;100550.69;5030993;28;20417;-86
2022/01/21 07:32:49;;;;;;;15.60;6.50;;;;;;;1.09;100.00;100549.84;5015659;28;20256;-86
2022/01/21 07:35:17;;;;;;;14.07;6.77;;;;;;;1.09;100.00;100562.03;5022076;28;20195;-84
2022/01/21 07:38:06;;;;;;;16.70;7.77;;;;;;;1.25;100.00;100568.03;5093278;28;20219;-85
2022/01/21 07:40:36;;;;;;;13.93;6.33;;;;;;;1.25;100.00;100573.25;5085512;28;20685;-85
2022/01/21 07:43:04;;;;;;;13.93;7.03;;;;;;;1.12;100.00;100577.66;5083838;28;20214;-86
2022/01/21 07:45:39;;;;;;;14.50;7.33;;;;;;;1.13;100.00;100563.72;5078796;28;20670;-86
2022/01/21 07:48:09;;;;;;;21.37;7.03;;;;;;;1.14;100.00;100557.63;5110303;28;20187;-85
2022/01/21 07:50:39;;;;;;;17.83;7.90;;;;;;;1.07;100.00;100554.19;5109974;28;20199;-86
2022/01/21 07:53:08;;;;;;;18.07;7.83;;;;;;;1.17;100.00;100549.81;5112561;28;20190;-84
2022/01/21 07:55:36;;;;;;;17.77;6.93;;;;;;;1.13;100.00;100542.84;5090161;28;20183;-85
2022/01/21 07:58:06;;;;;;;14.33;7.07;;;;;;;1.05;100.00;100537.66;5108947;28;20248;-86
2022/01/21 08:00:34;;;;;;;15.30;6.80;;;;;;;1.03;100.00;100541.16;5105597;28;20662;-85
2022/01/21 08:03:06;;;;;;;19.93;8.60;;;;;;;0.91;100.00;100533.38;5103031;28;20191;-85
2022/01/21 08:05:36;;;;;;;18.70;7.97;;;;;;;0.91;100.00;100529.03;5093781;28;20200;-85
2022/01/21 08:08:04;;;;;;;17.93;6.97;;;;;;;1.05;100.00;100529.84;5057881;28;20205;-85
2022/01/21 08:10:34;;;;;;;19.17;7.50;;;;;;;0.96;100.00;100539.44;5055266;28;20204;-85
2022/01/21 08:13:02;;;;;;;18.77;7.70;;;;;;;1.03;100.00;100551.59;5062340;28;20223;-85
2022/01/21 08:15:32;;;;;;;19.17;7.97;;;;;;;1.06;100.00;100556.78;5049629;28;20671;-85
2022/01/21 08:18:01;;;;;;;21.13;9.30;;;;;;;0.98;100.00;100553.34;5059452;28;20228;-84
2022/01/21 08:20:32;;;;;;;17.63;8.40;;;;;;;1.09;100.00;100547.22;5143335;27;20204;-84
2022/01/21 08:23:01;;;;;;;16.30;8.27;;;;;;;1.13;100.00;100542.84;5154350;27;20182;-89
2022/01/21 08:25:33;;;;;;;18.83;8.83;;;;;;;1.18;100.00;100543.72;5145279;27;20194;-87
2022/01/21 08:28:04;;;;;;;21.57;8.53;;;;;;;1.18;100.00;100541.13;5148939;27;20204;-88
2022/01/21 08:30:35;;;;;;;16.93;8.13;;;;;;;1.19;100.00;100544.59;5148560;27;20198;-89
2022/01/21 08:33:04;;;;;;;20.43;9.43;;;;;;;1.24;100.00;100551.50;5150062;27;20234;-89
2022/01/21 08:35:36;;;;;;;18.43;8.87;;;;;;;1.32;100.00;100544.53;5148421;27;20205;-88
2022/01/21 08:38:05;;;;;;;19.87;9.00;;;;;;;1.23;100.00;100544.56;5071510;28;20219;-90
2022/01/21 08:40:35;;;;;;;16.80;8.53;;;;;;;1.30;100.00;100551.50;5074429;28;20188;-89
2022/01/21 08:43:03;;;;;;;20.27;9.40;;;;;;;1.44;100.00;100554.03;5088005;28;20212;-89
2022/01/21 08:45:32;;;;;;;19.07;8.60;;;;;;;1.44;100.00;100561.88;5089073;28;20200;-87
2022/01/21 08:48:00;;;;;;;18.60;8.83;;;;;;;1.54;100.00;100563.56;5091558;28;20353;-89
2022/01/21 08:50:30;;;;;;;20.37;9.00;;;;;;;1.49;100.00;100565.34;5094227;28;20200;-87
2022/01/21 08:53:10;;;;;;;17.80;8.83;;;;;;;1.59;100.00;100563.56;5055716;28;20227;-88
2022/01/21 08:55:38;;;;;;;16.33;8.23;;;;;;;1.58;100.00;100574.88;5081656;28;20303;-88
2022/01/21 08:58:06;;;;;;;19.00;8.37;;;;;;;1.53;100.00;100564.44;5056317;28;20209;-90
2022/01/21 09:00:37;;;;;;;14.23;8.60;;;;;;;1.58;100.00;100577.50;5066357;27;20197;-90
2022/01/21 09:03:05;;;;;;;19.77;8.57;;;;;;;1.67;100.00;100569.63;5056943;28;20190;-90
2022/01/21 09:05:34;;;;;;;19.07;8.40;;;;;;;1.71;100.00;100568.72;5057080;28;20197;-88
2022/01/21 09:08:04;;;;;;;17.20;9.10;;;;;;;1.73;100.00;100574.78;5067385;27;20208;-90
2022/01/21 09:10:37;;;;;;;20.43;9.17;;;;;;;1.64;100.00;100578.34;5066557;27;20663;-90
2022/01/21 09:13:07;;;;;;;19.90;9.50;;;;;;;1.73;100.00;100578.25;5055358;27;20223;-88
2022/01/21 09:15:36;;;;;;;32.60;21.43;;;;;;;1.75;100.00;100582.63;5065750;27;20672;-88
2022/01/21 09:18:06;;;;;;;17.17;9.10;;;;;;;1.71;100.00;100584.38;5064636;27;20197;-89
2022/01/21 09:20:34;;;;;;;15.13;8.87;;;;;;;1.71;100.00;100579.16;5061331;27;20200;-89
2022/01/21 09:23:07;;;;;;;23.33;10.77;;;;;;;1.77;100.00;100592.19;5063943;27;20670;-86
2022/01/21 09:25:35;;;;;;;18.37;10.13;;;;;;;1.78;100.00;100582.63;5058726;27;20246;-86
2022/01/21 09:28:05;;;;;;;18.97;9.17;;;;;;;1.84;100.00;100583.47;5064732;27;20197;-86
2022/01/21 09:30:35;;;;;;;20.40;9.67;;;;;;;1.86;100.00;100578.22;5058188;27;20200;-86
2022/01/21 09:33:04;;;;;;;19.33;9.40;;;;;;;1.92;100.00;100573.81;5061414;27;20197;-86
2022/01/21 09:35:33;;;;;;;15.83;8.47;;;;;;;2.05;100.00;100578.97;5061727;28;20254;-86
2022/01/21 09:38:02;;;;;;;21.60;8.97;;;;;;;2.07;100.00;100587.66;5061635;28;20205;-87
2022/01/21 09:40:47;;;;;;;15.67;8.90;;;;;;;2.06;100.00;100573.75;5092714;27;20201;-88
2022/01/21 09:43:16;;;;;;;17.60;10.10;;;;;;;2.03;100.00;100565.94;5179727;27;20185;-86
2022/01/21 09:45:51;;;;;;;16.20;8.97;;;;;;;2.11;100.00;100571.06;5120924;27;20224;-85
2022/01/21 09:48:24;;;;;;;17.87;8.80;;;;;;;2.29;100.00;100574.44;5174001;27;20197;-85
2022/01/21 09:50:55;;;;;;;14.97;8.57;;;;;;;2.32;100.00;100575.28;5174470;27;20195;-85
2022/01/21 09:53:27;;;;;;;16.43;8.93;;;;;;;2.36;100.00;100579.63;5174983;27;20193;-85
2022/01/21 09:56:00;;;;;;;17.40;9.77;;;;;;;2.56;100.00;100575.09;5171116;27;20241;-84
2022/01/21 09:58:33;;;;;;;16.40;9.47;;;;;;;2.69;100.00;100578.47;5175758;27;20193;-85
2022/01/21 10:01:05;;;;;;;16.40;7.93;;;;;;;2.86;100.00;100574.81;5174714;27;20185;-85
2022/01/21 10:03:34;;;;;;;12.80;6.77;;;;;;;2.84;100.00;100581.81;5173587;27;20197;-85
2022/01/21 10:06:04;;;;;;;14.43;7.80;;;;;;;2.78;100.00;100578.38;5169896;27;20189;-84
2022/01/21 10:08:38;;;;;;;17.03;7.57;;;;;;;2.74;100.00;100574.94;5167561;27;20188;-83
2022/01/21 10:11:07;;;;;;;15.27;7.30;;;;;;;2.71;100.00;100572.34;5171097;27;20229;-85
2022/01/21 10:13:37;;;;;;;15.40;7.80;;;;;;;2.64;100.00;100577.66;5171826;27;20636;-85
2022/01/21 10:16:09;;;;;;;14.80;7.77;;;;;;;2.52;100.00;100566.41;5174216;27;20196;-85
2022/01/21 10:18:37;;;;;;;16.00;7.90;;;;;;;2.64;100.00;100560.22;5173458;27;20246;-84
2022/01/21 10:21:11;;;;;;;13.03;7.03;;;;;;;2.76;100.00;100564.44;5173491;27;20216;-85
2022/01/21 10:23:42;;;;;;;13.30;7.47;;;;;;;2.90;100.00;100559.09;5168264;27;20204;-84
2022/01/21 10:26:15;;;;;;;16.70;8.77;;;;;;;2.96;100.00;100559.00;5178331;27;20241;-84
2022/01/21 10:28:46;;;;;;;15.27;6.37;;;;;;;2.97;100.00;100559.00;5173344;27;20711;-85
2022/01/21 10:31:16;;;;;;;13.53;7.07;;;;;;;3.22;100.00;100556.13;5169524;27;20266;-84
2022/01/21 10:33:46;;;;;;;12.63;7.13;;;;;;;3.39;100.00;100554.19;5177950;27;20220;-84
2022/01/21 10:36:23;;;;;;;12.97;7.00;;;;;;;3.35;100.00;100563.81;5171537;27;20196;-84
2022/01/21 10:38:56;;;;;;;12.20;7.10;;;;;;;3.44;100.00;100554.97;5176859;27;20647;-83
2022/01/21 10:41:33;;;;;;;14.03;7.73;;;;;;;3.03;100.00;100552.84;5174166;27;20224;-84
2022/01/21 10:44:10;;;;;;;13.30;6.57;;;;;;;3.40;100.00;100550.66;5177228;27;20704;-84
2022/01/21 10:46:41;;;;;;;9.53;5.27;;;;;;;3.50;100.00;100551.41;5170662;27;20197;-83
2022/01/21 10:49:11;;;;;;;12.70;6.63;;;;;;;3.66;100.00;100532.84;5166820;27;20212;-83
2022/01/21 10:51:41;;;;;;;13.70;6.60;;;;;;;3.73;100.00;100544.97;5169502;27;20222;-83
2022/01/21 10:54:17;;;;;;;11.27;6.60;;;;;;;3.88;100.00;100541.28;5168884;27;20201;-83
2022/01/21 10:57:20;;;;;;;10.50;5.50;;;;;;;3.98;100.00;100552.50;5174139;27;20191;-84
2022/01/21 10:59:54;;;;;;;8.87;4.90;;;;;;;3.87;100.00;100541.31;5077818;28;20214;-83
2022/01/21 11:02:35;;;;;;;8.50;5.10;;;;;;;4.05;100.00;100532.28;5111480;28;20199;-83
2022/01/21 11:05:09;;;;;;;8.47;5.37;;;;;;;4.09;100.00;100523.50;5141917;27;20192;-84
2022/01/21 11:07:55;;;;;;;8.97;4.87;;;;;;;3.95;100.00;100529.78;5108029;28;20187;-84
2022/01/21 11:10:45;;;;;;;9.53;5.20;;;;;;;3.97;100.00;100527.19;5107946;28;20191;-84
2022/01/21 11:13:45;;;;;;;10.53;5.70;;;;;;;3.89;100.00;100514.19;5112672;28;20199;-84
2022/01/21 11:16:20;;;;;;;8.03;4.87;;;;;;;3.88;100.00;100507.22;5069226;28;20196;-84
2022/01/21 11:19:11;;;;;;;6.63;4.40;;;;;;;4.06;100.00;100503.44;5111162;28;20199;-84
2022/01/21 11:21:45;;;;;;;7.67;4.73;;;;;;;4.29;100.00;100513.56;5105620;28;20729;-83
2022/01/21 11:24:14;;;;;;;7.87;4.20;;;;;;;4.55;100.00;100506.13;5110302;28;20388;-84
2022/01/21 11:26:42;;;;;;;5.67;3.87;;;;;;;4.94;100.00;100508.91;5109839;28;20187;-83
2022/01/21 11:29:13;;;;;;;7.43;4.40;;;;;;;4.58;100.00;100506.03;5049533;28;20205;-84
2022/01/21 11:31:42;;;;;;;7.63;3.90;;;;;;;4.41;100.00;100509.84;5064048;28;20183;-84
2022/01/21 11:34:12;;;;;;;5.63;4.10;;;;;;;4.31;100.00;100510.00;5109982;28;20221;-84
2022/01/21 11:36:40;;;;;;;9.47;4.47;;;;;;;4.33;100.00;100509.97;5110231;28;20191;-84
2022/01/21 11:39:12;;;;;;;9.70;4.10;;;;;;;4.22;100.00;100506.66;5109306;28;20281;-84
2022/01/21 11:41:46;;;;;;;5.77;4.30;;;;;;;4.22;100.00;100497.03;5111562;28;20223;-85
2022/01/21 11:44:20;;;;;;;7.93;4.20;;;;;;;4.24;100.00;100502.25;5030426;28;20190;-84
2022/01/21 11:47:02;;;;;;;7.20;3.87;;;;;;;4.21;100.00;100500.56;5045858;28;20229;-84
2022/01/21 11:49:34;;;;;;;5.50;3.53;;;;;;;4.23;100.00;100497.91;5089186;28;20191;-84
2022/01/21 11:52:14;;;;;;;8.83;4.93;;;;;;;4.22;100.00;100507.53;5085560;28;20195;-85
2022/01/21 11:54:43;;;;;;;9.03;4.33;;;;;;;4.34;100.00;100495.97;5089139;28;20199;-84
2022/01/21 11:57:14;;;;;;;8.33;4.00;;;;;;;4.67;100.00;100496.28;5090426;28;20719;-84
2022/01/21 11:59:53;;;;;;;8.27;4.53;;;;;;;4.95;100.00;100491.38;5091545;28;20211;-84
2022/01/21 12:02:24;;;;;;;8.50;4.40;;;;;;;4.87;100.00;100495.00;5091863;28;20197;-84
2022/01/21 12:04:54;;;;;;;9.70;4.37;;;;;;;4.62;100.00;100498.09;5091558;28;20210;-85
2022/01/21 12:07:55;;;;;;;9.73;4.67;;;;;;;4.42;100.00;100506.34;5085827;28;20184;-84
2022/01/21 12:10:46;;;;;;;7.57;4.73;;;;;;;4.31;100.00;100507.38;5086516;28;20195;-85
2022/01/21 12:13:20;;;;;;;11.67;4.63;;;;;;;4.34;100.00;100505.59;5087825;28;20199;-84
2022/01/21 12:19:24;;;;;;;8.30;4.23;;;;;;;4.13;100.00;100504.19;5179024;27;20188;-84
2022/01/21 12:21:55;;;;;;;7.87;4.50;;;;;;;4.07;100.00;100501.69;5186822;27;20233;-84
2022/01/21 12:24:51;;;;;;;9.07;4.53;;;;;;;4.11;100.00;100503.34;5184575;27;20193;-84